sensor_id;sensor_type;location;lat;lon;timestamp;temperature;humidity
21280;DHT22;11764;43.100;25.716;2022-08-11T00:02:03;20.50;99.90
21280;DHT22;11764;43.100;25.716;2022-08-11T00:04:33;20.50;99.90
21280;DHT22;11764;43.100;25.716;2022-08-11T00:07:01;20.50;99.90
21280;DHT22;11764;43.100;25.716;2022-08-11T00:09:37;20.40;99.90
21280;DHT22;11764;43.100;25.716;2022-08-11T00:12:02;20.40;99.90
21280;DHT22;11764;43.100;25.716;2022-08-11T00:14:29;20.30;99.90
21280;DHT22;11764;43.100;25.716;2022-08-11T00:17:03;20.30;99.90
21280;DHT22;11764;43.100;25.716;2022-08-11T00:19:31;20.40;99.90
21280;DHT22;11764;43.100;25.716;2022-08-11T00:21:57;20.30;99.90
21280;DHT22;11764;43.100;25.716;2022-08-11T00:24:23;20.20;99.90
21280;DHT22;11764;43.100;25.716;2022-08-11T00:26:50;20.10;99.90
21280;DHT22;11764;43.100;25.716;2022-08-11T00:29:16;20.20;99.90
21280;DHT22;11764;43.100;25.716;2022-08-11T00:31:46;20.20;99.90
21280;DHT22;11764;43.100;25.716;2022-08-11T00:34:11;20.20;99.90
21280;DHT22;11764;43.100;25.716;2022-08-11T00:36:41;20.10;99.90
21280;DHT22;11764;43.100;25.716;2022-08-11T00:39:07;20.00;99.90
21280;DHT22;11764;43.100;25.716;2022-08-11T00:49:15;19.90;99.90
21280;DHT22;11764;43.100;25.716;2022-08-11T01:02:16;19.60;99.90
21280;DHT22;11764;43.100;25.716;2022-08-11T01:10:13;19.30;99.90
21280;DHT22;11764;43.100;25.716;2022-08-11T01:29:26;19.90;99.90
21280;DHT22;11764;43.100;25.716;2022-08-11T01:40:02;20.10;99.90
21280;DHT22;11764;43.100;25.716;2022-08-11T01:43:00;20.10;99.90
21280;DHT22;11764;43.100;25.716;2022-08-11T01:45:49;20.20;99.90
21280;DHT22;11764;43.100;25.716;2022-08-11T02:09:37;19.90;99.90
21280;DHT22;11764;43.100;25.716;2022-08-11T02:12:53;19.90;99.90
21280;DHT22;11764;43.100;25.716;2022-08-11T02:20:00;19.70;99.90
21280;DHT22;11764;43.100;25.716;2022-08-11T02:22:57;19.70;99.90
21280;DHT22;11764;43.100;25.716;2022-08-11T02:25:55;19.60;99.90
21280;DHT22;11764;43.100;25.716;2022-08-11T02:33:47;19.50;99.90
21280;DHT22;11764;43.100;25.716;2022-08-11T02:36:16;19.50;99.90
21280;DHT22;11764;43.100;25.716;2022-08-11T02:38:59;19.40;99.90
21280;DHT22;11764;43.100;25.716;2022-08-11T02:44:39;19.20;99.90
21280;DHT22;11764;43.100;25.716;2022-08-11T02:49:59;19.10;99.90
21280;DHT22;11764;43.100;25.716;2022-08-11T02:52:36;19.00;99.90
21280;DHT22;11764;43.100;25.716;2022-08-11T02:57:39;18.90;99.90
21280;DHT22;11764;43.100;25.716;2022-08-11T03:00:07;19.10;99.90
21280;DHT22;11764;43.100;25.716;2022-08-11T03:12:40;19.20;99.90
21280;DHT22;11764;43.100;25.716;2022-08-11T03:15:31;19.10;99.90
21280;DHT22;11764;43.100;25.716;2022-08-11T03:18:58;19.00;99.90
21280;DHT22;11764;43.100;25.716;2022-08-11T03:24:04;19.20;99.90
21280;DHT22;11764;43.100;25.716;2022-08-11T03:26:46;19.20;99.90
21280;DHT22;11764;43.100;25.716;2022-08-11T03:29:22;19.30;99.90
21280;DHT22;11764;43.100;25.716;2022-08-11T03:31:58;19.30;99.90
21280;DHT22;11764;43.100;25.716;2022-08-11T03:34:26;19.50;99.90
21280;DHT22;11764;43.100;25.716;2022-08-11T04:20:57;21.50;99.90
21280;DHT22;11764;43.100;25.716;2022-08-11T04:26:10;21.50;99.90
21280;DHT22;11764;43.100;25.716;2022-08-11T04:28:48;21.40;99.90
21280;DHT22;11764;43.100;25.716;2022-08-11T05:00:55;22.20;99.90
21280;DHT22;11764;43.100;25.716;2022-08-11T05:06:27;22.50;99.90
21280;DHT22;11764;43.100;25.716;2022-08-11T05:11:38;22.10;99.90
21280;DHT22;11764;43.100;25.716;2022-08-11T05:17:03;22.00;99.90
21280;DHT22;11764;43.100;25.716;2022-08-11T05:19:49;22.30;99.90
21280;DHT22;11764;43.100;25.716;2022-08-11T05:22:33;22.60;99.90
21280;DHT22;11764;43.100;25.716;2022-08-11T05:25:19;22.70;99.90
21280;DHT22;11764;43.100;25.716;2022-08-11T05:28:12;22.70;99.90
21280;DHT22;11764;43.100;25.716;2022-08-11T05:31:11;22.80;99.90
21280;DHT22;11764;43.100;25.716;2022-08-11T05:33:57;22.90;99.90
21280;DHT22;11764;43.100;25.716;2022-08-11T05:39:15;23.20;99.90
21280;DHT22;11764;43.100;25.716;2022-08-11T05:41:59;23.30;99.90
21280;DHT22;11764;43.100;25.716;2022-08-11T05:44:44;23.30;99.90
21280;DHT22;11764;43.100;25.716;2022-08-11T05:47:28;23.40;99.90
21280;DHT22;11764;43.100;25.716;2022-08-11T05:50:13;23.60;99.90
21280;DHT22;11764;43.100;25.716;2022-08-11T05:52:58;23.80;99.90
21280;DHT22;11764;43.100;25.716;2022-08-11T05:55:43;24.10;99.90
21280;DHT22;11764;43.100;25.716;2022-08-11T05:58:35;24.00;99.90
21280;DHT22;11764;43.100;25.716;2022-08-11T06:01:00;23.70;99.90
21280;DHT22;11764;43.100;25.716;2022-08-11T06:03:27;23.40;99.90
21280;DHT22;11764;43.100;25.716;2022-08-11T06:05:53;23.20;99.90
21280;DHT22;11764;43.100;25.716;2022-08-11T06:08:30;23.10;99.90
21280;DHT22;11764;43.100;25.716;2022-08-11T06:11:01;23.00;99.90
21280;DHT22;11764;43.100;25.716;2022-08-11T06:13:27;23.10;99.90
21280;DHT22;11764;43.100;25.716;2022-08-11T06:15:53;23.20;99.90
21280;DHT22;11764;43.100;25.716;2022-08-11T06:18:20;23.40;99.90
21280;DHT22;11764;43.100;25.716;2022-08-11T06:20:50;23.50;99.90
21280;DHT22;11764;43.100;25.716;2022-08-11T06:23:16;23.70;99.90
21280;DHT22;11764;43.100;25.716;2022-08-11T06:25:43;23.70;99.90
21280;DHT22;11764;43.100;25.716;2022-08-11T06:28:09;23.80;99.90
21280;DHT22;11764;43.100;25.716;2022-08-11T06:30:43;23.90;99.90
21280;DHT22;11764;43.100;25.716;2022-08-11T06:33:17;23.80;99.90
21280;DHT22;11764;43.100;25.716;2022-08-11T06:38:27;24.00;99.90
21280;DHT22;11764;43.100;25.716;2022-08-11T06:46:35;23.80;99.90
21280;DHT22;11764;43.100;25.716;2022-08-11T06:49:03;23.80;99.90
21280;DHT22;11764;43.100;25.716;2022-08-11T06:51:30;23.90;99.90
21280;DHT22;11764;43.100;25.716;2022-08-11T06:53:57;24.00;99.90
21280;DHT22;11764;43.100;25.716;2022-08-11T06:56:28;23.90;99.90
21280;DHT22;11764;43.100;25.716;2022-08-11T06:59:13;23.80;99.90
21280;DHT22;11764;43.100;25.716;2022-08-11T07:22:19;24.40;99.90
21280;DHT22;11764;43.100;25.716;2022-08-11T07:25:07;24.70;99.90
21280;DHT22;11764;43.100;25.716;2022-08-11T07:27:57;24.70;99.90
21280;DHT22;11764;43.100;25.716;2022-08-11T07:30:42;24.70;99.90
21280;DHT22;11764;43.100;25.716;2022-08-11T07:33:09;24.70;99.90
21280;DHT22;11764;43.100;25.716;2022-08-11T07:35:37;24.10;99.90
21280;DHT22;11764;43.100;25.716;2022-08-11T07:38:08;24.10;99.90
21280;DHT22;11764;43.100;25.716;2022-08-11T07:40:36;24.10;99.90
21280;DHT22;11764;43.100;25.716;2022-08-11T07:43:03;24.50;99.90
21280;DHT22;11764;43.100;25.716;2022-08-11T07:45:29;25.00;99.90
21280;DHT22;11764;43.100;25.716;2022-08-11T07:48:13;25.10;99.90
21280;DHT22;11764;43.100;25.716;2022-08-11T07:50:58;25.40;99.90
21280;DHT22;11764;43.100;25.716;2022-08-11T07:53:43;25.30;99.90
21280;DHT22;11764;43.100;25.716;2022-08-11T07:56:10;25.20;99.90
21280;DHT22;11764;43.100;25.716;2022-08-11T07:58:40;25.40;99.90
21280;DHT22;11764;43.100;25.716;2022-08-11T08:01:24;25.60;99.90
21280;DHT22;11764;43.100;25.716;2022-08-11T08:04:10;25.50;99.90
21280;DHT22;11764;43.100;25.716;2022-08-11T08:06:55;25.80;99.90
21280;DHT22;11764;43.100;25.716;2022-08-11T08:09:39;25.80;99.90
21280;DHT22;11764;43.100;25.716;2022-08-11T08:12:23;25.00;99.90
21280;DHT22;11764;43.100;25.716;2022-08-11T08:15:09;25.20;99.90
21280;DHT22;11764;43.100;25.716;2022-08-11T08:17:54;25.60;99.90
21280;DHT22;11764;43.100;25.716;2022-08-11T08:20:24;25.90;99.90
21280;DHT22;11764;43.100;25.716;2022-08-11T08:22:51;25.90;99.90
21280;DHT22;11764;43.100;25.716;2022-08-11T08:25:39;26.40;99.90
21280;DHT22;11764;43.100;25.716;2022-08-11T08:28:06;26.90;99.90
21280;DHT22;11764;43.100;25.716;2022-08-11T08:30:33;26.60;99.90
21280;DHT22;11764;43.100;25.716;2022-08-11T08:33:20;26.50;99.90
21280;DHT22;11764;43.100;25.716;2022-08-11T08:35:47;26.30;99.90
21280;DHT22;11764;43.100;25.716;2022-08-11T08:38:13;25.50;99.90
21280;DHT22;11764;43.100;25.716;2022-08-11T08:40:39;26.00;99.90
21280;DHT22;11764;43.100;25.716;2022-08-11T08:43:07;26.40;99.90
21280;DHT22;11764;43.100;25.716;2022-08-11T08:45:35;26.20;99.90
21280;DHT22;11764;43.100;25.716;2022-08-11T08:48:02;26.10;99.90
21280;DHT22;11764;43.100;25.716;2022-08-11T08:50:29;26.10;99.90
21280;DHT22;11764;43.100;25.716;2022-08-11T08:53:23;25.30;99.90
21280;DHT22;11764;43.100;25.716;2022-08-11T08:55:53;25.40;99.90
21280;DHT22;11764;43.100;25.716;2022-08-11T08:58:21;26.10;99.90
21280;DHT22;11764;43.100;25.716;2022-08-11T09:00:49;26.50;99.90
21280;DHT22;11764;43.100;25.716;2022-08-11T09:03:15;26.90;99.90
21280;DHT22;11764;43.100;25.716;2022-08-11T09:05:42;27.30;99.90
21280;DHT22;11764;43.100;25.716;2022-08-11T09:08:07;27.50;99.90
21280;DHT22;11764;43.100;25.716;2022-08-11T09:10:33;27.50;99.90
21280;DHT22;11764;43.100;25.716;2022-08-11T09:12:59;26.80;99.90
21280;DHT22;11764;43.100;25.716;2022-08-11T09:15:27;26.60;99.90
21280;DHT22;11764;43.100;25.716;2022-08-11T09:17:54;25.90;99.90
21280;DHT22;11764;43.100;25.716;2022-08-11T09:20:25;26.00;99.90
21280;DHT22;11764;43.100;25.716;2022-08-11T09:22:56;26.40;99.90
21280;DHT22;11764;43.100;25.716;2022-08-11T09:25:41;26.70;99.90
21280;DHT22;11764;43.100;25.716;2022-08-11T09:28:26;26.90;99.90
21280;DHT22;11764;43.100;25.716;2022-08-11T09:30:53;26.80;99.90
21280;DHT22;11764;43.100;25.716;2022-08-11T09:33:20;26.60;99.90
21280;DHT22;11764;43.100;25.716;2022-08-11T09:35:47;26.70;99.90
21280;DHT22;11764;43.100;25.716;2022-08-11T09:38:14;26.90;99.90
21280;DHT22;11764;43.100;25.716;2022-08-11T09:40:59;27.30;99.90
21280;DHT22;11764;43.100;25.716;2022-08-11T09:43:26;27.50;99.90
21280;DHT22;11764;43.100;25.716;2022-08-11T09:46:10;27.80;99.90
21280;DHT22;11764;43.100;25.716;2022-08-11T09:48:39;28.10;99.90
21280;DHT22;11764;43.100;25.716;2022-08-11T09:51:06;27.70;99.90
21280;DHT22;11764;43.100;25.716;2022-08-11T09:53:34;27.80;99.90
21280;DHT22;11764;43.100;25.716;2022-08-11T09:56:01;28.00;99.90
21280;DHT22;11764;43.100;25.716;2022-08-11T09:58:49;28.00;99.90
21280;DHT22;11764;43.100;25.716;2022-08-11T10:01:15;28.10;99.90
21280;DHT22;11764;43.100;25.716;2022-08-11T10:03:55;27.50;99.90
21280;DHT22;11764;43.100;25.716;2022-08-11T10:06:23;26.90;99.90
21280;DHT22;11764;43.100;25.716;2022-08-11T10:09:08;27.20;99.90
21280;DHT22;11764;43.100;25.716;2022-08-11T10:11:34;27.70;99.90
21280;DHT22;11764;43.100;25.716;2022-08-11T10:14:00;28.20;99.90
21280;DHT22;11764;43.100;25.716;2022-08-11T10:16:45;28.00;99.90
21280;DHT22;11764;43.100;25.716;2022-08-11T10:19:12;27.60;99.90
21280;DHT22;11764;43.100;25.716;2022-08-11T10:21:40;27.40;99.90
21280;DHT22;11764;43.100;25.716;2022-08-11T10:24:06;27.20;99.90
21280;DHT22;11764;43.100;25.716;2022-08-11T10:26:52;27.00;99.90
21280;DHT22;11764;43.100;25.716;2022-08-11T10:32:07;27.60;99.90
21280;DHT22;11764;43.100;25.716;2022-08-11T10:34:51;28.10;99.90
21280;DHT22;11764;43.100;25.716;2022-08-11T10:37:18;28.20;99.90
21280;DHT22;11764;43.100;25.716;2022-08-11T10:39:44;28.40;99.90
21280;DHT22;11764;43.100;25.716;2022-08-11T10:42:10;28.80;99.90
21280;DHT22;11764;43.100;25.716;2022-08-11T10:44:55;28.60;99.90
21280;DHT22;11764;43.100;25.716;2022-08-11T10:47:22;27.50;99.90
21280;DHT22;11764;43.100;25.716;2022-08-11T10:50:03;27.20;99.90
21280;DHT22;11764;43.100;25.716;2022-08-11T10:52:50;27.90;99.90
21280;DHT22;11764;43.100;25.716;2022-08-11T10:55:35;28.00;99.90
21280;DHT22;11764;43.100;25.716;2022-08-11T10:58:20;27.80;99.90
21280;DHT22;11764;43.100;25.716;2022-08-11T11:01:04;28.50;99.90
21280;DHT22;11764;43.100;25.716;2022-08-11T11:03:30;28.80;99.90
21280;DHT22;11764;43.100;25.716;2022-08-11T11:06:11;28.60;99.90
21280;DHT22;11764;43.100;25.716;2022-08-11T11:08:41;28.70;99.90
21280;DHT22;11764;43.100;25.716;2022-08-11T11:11:18;28.40;99.90
21280;DHT22;11764;43.100;25.716;2022-08-11T11:13:46;28.20;99.90
21280;DHT22;11764;43.100;25.716;2022-08-11T11:16:32;28.20;99.90
21280;DHT22;11764;43.100;25.716;2022-08-11T11:19:18;27.80;99.90
21280;DHT22;11764;43.100;25.716;2022-08-11T11:21:48;27.50;99.90
21280;DHT22;11764;43.100;25.716;2022-08-11T11:24:20;27.60;99.90
21280;DHT22;11764;43.100;25.716;2022-08-11T11:37:13;28.00;99.90
21280;DHT22;11764;43.100;25.716;2022-08-11T11:39:41;27.90;99.90
21280;DHT22;11764;43.100;25.716;2022-08-11T11:42:08;27.80;99.90
21280;DHT22;11764;43.100;25.716;2022-08-11T11:44:37;27.80;99.90
21280;DHT22;11764;43.100;25.716;2022-08-11T11:47:03;28.00;99.90
21280;DHT22;11764;43.100;25.716;2022-08-11T11:49:30;27.80;99.90
21280;DHT22;11764;43.100;25.716;2022-08-11T11:52:03;27.90;99.90
21280;DHT22;11764;43.100;25.716;2022-08-11T11:54:30;28.20;99.90
21280;DHT22;11764;43.100;25.716;2022-08-11T11:57:01;28.10;99.90
21280;DHT22;11764;43.100;25.716;2022-08-11T11:59:47;27.80;99.90
21280;DHT22;11764;43.100;25.716;2022-08-11T12:02:31;27.40;99.90
21280;DHT22;11764;43.100;25.716;2022-08-11T12:04:57;28.00;99.90
21280;DHT22;11764;43.100;25.716;2022-08-11T12:07:23;28.20;99.90
21280;DHT22;11764;43.100;25.716;2022-08-11T12:10:07;28.40;99.90
21280;DHT22;11764;43.100;25.716;2022-08-11T12:12:33;27.60;99.90
21280;DHT22;11764;43.100;25.716;2022-08-11T12:15:17;27.90;99.90
21280;DHT22;11764;43.100;25.716;2022-08-11T12:17:44;28.30;99.90
21280;DHT22;11764;43.100;25.716;2022-08-11T12:20:10;28.40;99.90
21280;DHT22;11764;43.100;25.716;2022-08-11T12:22:39;28.20;99.90
21280;DHT22;11764;43.100;25.716;2022-08-11T12:28:27;28.20;99.90
21280;DHT22;11764;43.100;25.716;2022-08-11T12:30:53;27.90;99.90
21280;DHT22;11764;43.100;25.716;2022-08-11T12:33:18;27.80;99.90
21280;DHT22;11764;43.100;25.716;2022-08-11T12:35:45;27.70;99.90
21280;DHT22;11764;43.100;25.716;2022-08-11T12:38:11;28.00;99.90
21280;DHT22;11764;43.100;25.716;2022-08-11T12:40:37;28.10;99.90
21280;DHT22;11764;43.100;25.716;2022-08-11T12:43:22;28.00;99.90
21280;DHT22;11764;43.100;25.716;2022-08-11T12:46:08;28.10;99.90
21280;DHT22;11764;43.100;25.716;2022-08-11T12:48:35;27.90;99.90
21280;DHT22;11764;43.100;25.716;2022-08-11T12:51:21;28.00;99.90
21280;DHT22;11764;43.100;25.716;2022-08-11T12:54:11;28.00;99.90
21280;DHT22;11764;43.100;25.716;2022-08-11T12:56:49;27.90;99.90
21280;DHT22;11764;43.100;25.716;2022-08-11T12:59:35;27.80;99.90
21280;DHT22;11764;43.100;25.716;2022-08-11T13:02:20;27.50;99.90
21280;DHT22;11764;43.100;25.716;2022-08-11T13:05:05;27.70;99.90
21280;DHT22;11764;43.100;25.716;2022-08-11T13:07:31;27.90;99.90
21280;DHT22;11764;43.100;25.716;2022-08-11T13:09:58;27.90;99.90
21280;DHT22;11764;43.100;25.716;2022-08-11T13:12:26;28.00;99.90
21280;DHT22;11764;43.100;25.716;2022-08-11T13:15:13;28.00;99.90
21280;DHT22;11764;43.100;25.716;2022-08-11T13:17:39;28.10;99.90
21280;DHT22;11764;43.100;25.716;2022-08-11T13:20:06;28.00;99.90
21280;DHT22;11764;43.100;25.716;2022-08-11T13:22:33;28.00;99.90
21280;DHT22;11764;43.100;25.716;2022-08-11T13:24:59;28.20;99.90
21280;DHT22;11764;43.100;25.716;2022-08-11T13:27:25;28.30;99.90
21280;DHT22;11764;43.100;25.716;2022-08-11T13:29:51;28.30;99.90
21280;DHT22;11764;43.100;25.716;2022-08-11T13:32:38;28.50;99.90
21280;DHT22;11764;43.100;25.716;2022-08-11T13:35:04;28.70;99.90
21280;DHT22;11764;43.100;25.716;2022-08-11T13:37:30;28.70;99.30
21280;DHT22;11764;43.100;25.716;2022-08-11T13:39:55;28.50;99.40
21280;DHT22;11764;43.100;25.716;2022-08-11T13:42:23;28.60;99.00
21280;DHT22;11764;43.100;25.716;2022-08-11T13:44:48;28.40;99.10
21280;DHT22;11764;43.100;25.716;2022-08-11T13:47:14;28.60;98.50
21280;DHT22;11764;43.100;25.716;2022-08-11T13:49:40;28.60;98.70
21280;DHT22;11764;43.100;25.716;2022-08-11T13:52:10;28.50;98.90
21280;DHT22;11764;43.100;25.716;2022-08-11T13:54:37;28.40;98.80
21280;DHT22;11764;43.100;25.716;2022-08-11T13:57:05;28.30;98.80
21280;DHT22;11764;43.100;25.716;2022-08-11T13:59:30;28.70;99.00
21280;DHT22;11764;43.100;25.716;2022-08-11T14:01:58;28.80;98.40
21280;DHT22;11764;43.100;25.716;2022-08-11T14:04:39;28.80;98.30
21280;DHT22;11764;43.100;25.716;2022-08-11T14:07:06;28.80;97.20
21280;DHT22;11764;43.100;25.716;2022-08-11T14:09:37;28.90;97.00
21280;DHT22;11764;43.100;25.716;2022-08-11T14:12:06;29.00;96.90
21280;DHT22;11764;43.100;25.716;2022-08-11T14:14:55;28.90;96.70
21280;DHT22;11764;43.100;25.716;2022-08-11T14:17:21;29.00;96.40
21280;DHT22;11764;43.100;25.716;2022-08-11T14:19:49;29.40;96.40
21280;DHT22;11764;43.100;25.716;2022-08-11T14:22:16;29.50;95.30
21280;DHT22;11764;43.100;25.716;2022-08-11T14:24:43;29.40;95.10
21280;DHT22;11764;43.100;25.716;2022-08-11T14:27:14;28.80;94.80
21280;DHT22;11764;43.100;25.716;2022-08-11T14:29:40;28.40;96.10
21280;DHT22;11764;43.100;25.716;2022-08-11T14:32:07;28.80;96.50
21280;DHT22;11764;43.100;25.716;2022-08-11T14:34:33;29.30;95.60
21280;DHT22;11764;43.100;25.716;2022-08-11T14:36:59;29.60;94.40
21280;DHT22;11764;43.100;25.716;2022-08-11T14:39:27;29.50;93.80
21280;DHT22;11764;43.100;25.716;2022-08-11T14:41:56;29.70;93.70
21280;DHT22;11764;43.100;25.716;2022-08-11T14:44:43;30.30;93.40
21280;DHT22;11764;43.100;25.716;2022-08-11T14:47:38;30.40;91.80
21280;DHT22;11764;43.100;25.716;2022-08-11T14:50:05;30.30;91.60
21280;DHT22;11764;43.100;25.716;2022-08-11T14:52:31;30.70;91.40
21280;DHT22;11764;43.100;25.716;2022-08-11T14:54:59;31.60;90.50
21280;DHT22;11764;43.100;25.716;2022-08-11T14:57:44;32.20;87.90
21280;DHT22;11764;43.100;25.716;2022-08-11T15:00:12;32.60;86.30
21280;DHT22;11764;43.100;25.716;2022-08-11T15:02:43;32.50;85.30
21280;DHT22;11764;43.100;25.716;2022-08-11T15:05:27;32.30;84.80
21280;DHT22;11764;43.100;25.716;2022-08-11T15:07:54;32.60;83.30
21280;DHT22;11764;43.100;25.716;2022-08-11T15:10:21;32.30;83.20
21280;DHT22;11764;43.100;25.716;2022-08-11T15:12:47;31.90;84.30
21280;DHT22;11764;43.100;25.716;2022-08-11T15:15:13;32.00;84.00
21280;DHT22;11764;43.100;25.716;2022-08-11T15:17:59;32.10;83.30
21280;DHT22;11764;43.100;25.716;2022-08-11T15:20:27;32.20;83.00
21280;DHT22;11764;43.100;25.716;2022-08-11T15:23:10;32.30;82.70
21280;DHT22;11764;43.100;25.716;2022-08-11T15:25:56;32.30;82.70
21280;DHT22;11764;43.100;25.716;2022-08-11T15:28:22;32.30;82.20
21280;DHT22;11764;43.100;25.716;2022-08-11T15:31:07;31.40;83.50
21280;DHT22;11764;43.100;25.716;2022-08-11T15:33:52;31.40;83.80
21280;DHT22;11764;43.100;25.716;2022-08-11T15:36:37;31.40;84.30
21280;DHT22;11764;43.100;25.716;2022-08-11T15:39:23;32.10;82.30
21280;DHT22;11764;43.100;25.716;2022-08-11T15:44:40;32.70;80.40
21280;DHT22;11764;43.100;25.716;2022-08-11T15:47:26;32.20;80.10
21280;DHT22;11764;43.100;25.716;2022-08-11T15:49:52;32.30;80.00
21280;DHT22;11764;43.100;25.716;2022-08-11T15:52:24;32.70;79.80
21280;DHT22;11764;43.100;25.716;2022-08-11T15:54:50;32.40;79.90
21280;DHT22;11764;43.100;25.716;2022-08-11T15:57:16;31.90;80.80
21280;DHT22;11764;43.100;25.716;2022-08-11T16:00:03;32.30;80.50
21280;DHT22;11764;43.100;25.716;2022-08-11T16:02:48;32.50;79.40
21280;DHT22;11764;43.100;25.716;2022-08-11T16:05:14;31.90;80.30
21280;DHT22;11764;43.100;25.716;2022-08-11T16:07:42;31.50;80.30
21280;DHT22;11764;43.100;25.716;2022-08-11T16:10:14;30.60;82.50
21280;DHT22;11764;43.100;25.716;2022-08-11T16:13:01;30.10;83.90
21280;DHT22;11764;43.100;25.716;2022-08-11T16:15:30;30.10;84.80
21280;DHT22;11764;43.100;25.716;2022-08-11T16:18:15;30.20;84.60
21280;DHT22;11764;43.100;25.716;2022-08-11T16:20:43;30.60;84.50
21280;DHT22;11764;43.100;25.716;2022-08-11T16:23:09;31.10;83.10
21280;DHT22;11764;43.100;25.716;2022-08-11T16:25:35;31.30;82.50
21280;DHT22;11764;43.100;25.716;2022-08-11T16:28:02;31.30;82.10
21280;DHT22;11764;43.100;25.716;2022-08-11T16:30:36;31.70;81.80
21280;DHT22;11764;43.100;25.716;2022-08-11T16:33:03;31.40;81.70
21280;DHT22;11764;43.100;25.716;2022-08-11T16:35:31;31.60;81.80
21280;DHT22;11764;43.100;25.716;2022-08-11T16:38:16;31.20;82.20
21280;DHT22;11764;43.100;25.716;2022-08-11T16:41:02;31.00;83.30
21280;DHT22;11764;43.100;25.716;2022-08-11T16:43:29;30.90;83.30
21280;DHT22;11764;43.100;25.716;2022-08-11T16:46:13;30.40;84.00
21280;DHT22;11764;43.100;25.716;2022-08-11T16:48:44;29.80;85.00
21280;DHT22;11764;43.100;25.716;2022-08-11T16:51:10;29.20;87.20
21280;DHT22;11764;43.100;25.716;2022-08-11T16:53:36;28.70;88.50
21280;DHT22;11764;43.100;25.716;2022-08-11T16:56:04;28.40;90.00
21280;DHT22;11764;43.100;25.716;2022-08-11T16:58:30;28.20;90.50
21280;DHT22;11764;43.100;25.716;2022-08-11T17:01:15;27.80;91.00
21280;DHT22;11764;43.100;25.716;2022-08-11T17:03:43;27.80;91.20
21280;DHT22;11764;43.100;25.716;2022-08-11T17:06:28;27.80;91.70
21280;DHT22;11764;43.100;25.716;2022-08-11T17:09:12;27.60;92.10
21280;DHT22;11764;43.100;25.716;2022-08-11T17:11:58;27.50;92.80
21280;DHT22;11764;43.100;25.716;2022-08-11T17:14:45;27.20;93.60
21280;DHT22;11764;43.100;25.716;2022-08-11T17:17:17;26.90;94.20
21280;DHT22;11764;43.100;25.716;2022-08-11T17:19:49;26.70;94.10
21280;DHT22;11764;43.100;25.716;2022-08-11T17:22:16;26.50;95.20
21280;DHT22;11764;43.100;25.716;2022-08-11T17:25:01;26.30;95.80
21280;DHT22;11764;43.100;25.716;2022-08-11T17:27:27;26.00;96.50
21280;DHT22;11764;43.100;25.716;2022-08-11T17:29:58;25.90;96.70
21280;DHT22;11764;43.100;25.716;2022-08-11T17:32:47;25.90;97.00
21280;DHT22;11764;43.100;25.716;2022-08-11T17:35:33;25.90;97.40
21280;DHT22;11764;43.100;25.716;2022-08-11T17:40:28;25.20;99.90
21280;DHT22;11764;43.100;25.716;2022-08-11T17:42:55;25.00;99.90
21280;DHT22;11764;43.100;25.716;2022-08-11T17:45:40;24.70;99.90
21280;DHT22;11764;43.100;25.716;2022-08-11T17:48:25;24.60;99.90
21280;DHT22;11764;43.100;25.716;2022-08-11T17:50:52;24.60;99.90
21280;DHT22;11764;43.100;25.716;2022-08-11T17:53:18;24.40;99.90
21280;DHT22;11764;43.100;25.716;2022-08-11T17:56:02;24.40;99.90
21280;DHT22;11764;43.100;25.716;2022-08-11T17:58:47;24.40;99.90
21280;DHT22;11764;43.100;25.716;2022-08-11T18:01:33;24.20;99.90
21280;DHT22;11764;43.100;25.716;2022-08-11T18:04:04;24.10;99.90
21280;DHT22;11764;43.100;25.716;2022-08-11T18:06:30;24.10;99.90
21280;DHT22;11764;43.100;25.716;2022-08-11T18:08:56;24.10;99.90
21280;DHT22;11764;43.100;25.716;2022-08-11T18:11:41;24.10;99.90
21280;DHT22;11764;43.100;25.716;2022-08-11T18:14:25;23.90;99.90
21280;DHT22;11764;43.100;25.716;2022-08-11T18:17:11;23.80;99.90
21280;DHT22;11764;43.100;25.716;2022-08-11T18:19:55;23.80;99.90
21280;DHT22;11764;43.100;25.716;2022-08-11T18:22:40;23.70;99.90
21280;DHT22;11764;43.100;25.716;2022-08-11T18:25:26;23.70;99.90
21280;DHT22;11764;43.100;25.716;2022-08-11T18:28:14;23.50;99.90
21280;DHT22;11764;43.100;25.716;2022-08-11T18:30:59;23.40;99.90
21280;DHT22;11764;43.100;25.716;2022-08-11T18:33:53;23.40;99.90
21280;DHT22;11764;43.100;25.716;2022-08-11T18:36:50;23.30;99.90
21280;DHT22;11764;43.100;25.716;2022-08-11T18:39:36;23.30;99.90
21280;DHT22;11764;43.100;25.716;2022-08-11T18:42:23;23.20;99.90
21280;DHT22;11764;43.100;25.716;2022-08-11T18:45:09;23.10;99.90
21280;DHT22;11764;43.100;25.716;2022-08-11T18:47:56;23.00;99.90
21280;DHT22;11764;43.100;25.716;2022-08-11T18:50:41;23.10;99.90
21280;DHT22;11764;43.100;25.716;2022-08-11T18:53:27;23.00;99.90
21280;DHT22;11764;43.100;25.716;2022-08-11T18:56:11;23.00;99.90
21280;DHT22;11764;43.100;25.716;2022-08-11T18:58:56;23.00;99.90
21280;DHT22;11764;43.100;25.716;2022-08-11T19:01:41;22.90;99.90
21280;DHT22;11764;43.100;25.716;2022-08-11T19:04:26;23.10;99.90
21280;DHT22;11764;43.100;25.716;2022-08-11T19:07:10;23.10;99.90
21280;DHT22;11764;43.100;25.716;2022-08-11T19:09:55;23.00;99.90
21280;DHT22;11764;43.100;25.716;2022-08-11T19:12:41;22.90;99.90
21280;DHT22;11764;43.100;25.716;2022-08-11T19:15:26;22.80;99.90
21280;DHT22;11764;43.100;25.716;2022-08-11T19:18:17;22.80;99.90
21280;DHT22;11764;43.100;25.716;2022-08-11T19:21:02;22.80;99.90
21280;DHT22;11764;43.100;25.716;2022-08-11T19:23:49;22.90;99.90
21280;DHT22;11764;43.100;25.716;2022-08-11T19:26:34;22.80;99.90
21280;DHT22;11764;43.100;25.716;2022-08-11T19:29:19;22.80;99.90
21280;DHT22;11764;43.100;25.716;2022-08-11T19:32:04;22.90;99.90
21280;DHT22;11764;43.100;25.716;2022-08-11T19:34:49;22.90;99.90
21280;DHT22;11764;43.100;25.716;2022-08-11T19:37:34;22.80;99.90
21280;DHT22;11764;43.100;25.716;2022-08-11T19:40:18;22.80;99.90
21280;DHT22;11764;43.100;25.716;2022-08-11T19:43:03;23.00;99.90
21280;DHT22;11764;43.100;25.716;2022-08-11T19:45:48;23.10;99.90
21280;DHT22;11764;43.100;25.716;2022-08-11T19:48:33;22.90;99.90
21280;DHT22;11764;43.100;25.716;2022-08-11T19:51:18;22.80;99.90
21280;DHT22;11764;43.100;25.716;2022-08-11T19:54:02;22.70;99.90
21280;DHT22;11764;43.100;25.716;2022-08-11T19:56:46;22.60;99.90
21280;DHT22;11764;43.100;25.716;2022-08-11T19:59:32;22.50;99.90
21280;DHT22;11764;43.100;25.716;2022-08-11T20:02:17;22.30;99.90
21280;DHT22;11764;43.100;25.716;2022-08-11T20:05:01;22.10;99.90